Time;durP1;ratioP1;P1;durP2;ratioP2;P2;SDS_P1;SDS_P2;PMS_P1;PMS_P2;Temp;Humidity;BMP_temperature;BMP_pressure;BME280_temperature;BME280_humidity;BME280_pressure;Samples;Min_cycle;Max_cycle;Signal;HPM_P1;HPM_P2
2022/10/18 00:01:13;;;;;;;2.17;1.98;;;;;;;;;;5035079;28;20053;-57
2022/10/18 00:03:39;;;;;;;1.25;1.15;;;;;;;;;;5045537;28;99180;-57
2022/10/18 00:06:07;;;;;;;1.27;1.17;;;;;;;;;;5049385;28;20060;-57
2022/10/18 00:08:34;;;;;;;1.35;0.90;;;;;;;;;;5033971;28;20041;-57
2022/10/18 00:11:00;;;;;;;1.30;1.20;;;;;;;;;;5033126;28;20052;-57
2022/10/18 00:13:26;;;;;;;1.55;1.45;;;;;;;;;;5034645;28;20067;-56
2022/10/18 00:15:53;;;;;;;2.40;2.20;;;;;;;;;;5035739;28;20076;-57
2022/10/18 00:18:19;;;;;;;2.28;2.08;;;;;;;;;;5040449;28;20039;-57
2022/10/18 00:20:45;;;;;;;1.83;1.73;;;;;;;;;;5035255;28;20559;-57
2022/10/18 00:23:11;;;;;;;1.40;1.30;;;;;;;;;;5036217;28;20041;-57
2022/10/18 00:25:37;;;;;;;1.65;1.55;;;;;;;;;;5034666;28;20104;-57
2022/10/18 00:28:03;;;;;;;1.98;1.35;;;;;;;;;;5038433;28;20132;-56
2022/10/18 00:30:29;;;;;;;1.95;1.55;;;;;;;;;;5033592;28;20504;-57
2022/10/18 00:32:55;;;;;;;1.92;1.75;;;;;;;;;;5034635;28;21665;-57
2022/10/18 00:35:21;;;;;;;1.88;1.77;;;;;;;;;;5033871;28;20044;-57
2022/10/18 00:37:47;;;;;;;2.90;1.92;;;;;;;;;;5031565;28;20388;-57
2022/10/18 00:40:13;;;;;;;2.03;1.88;;;;;;;;;;5033210;28;20041;-56
2022/10/18 00:42:39;;;;;;;2.15;1.80;;;;;;;;;;5035238;28;20438;-57
2022/10/18 00:45:05;;;;;;;2.20;2.00;;;;;;;;;;5032378;28;20103;-57
2022/10/18 00:47:32;;;;;;;5.00;2.90;;;;;;;;;;5039522;28;20037;-56
2022/10/18 00:50:00;;;;;;;2.97;2.78;;;;;;;;;;5033504;28;20079;-57
2022/10/18 00:52:28;;;;;;;3.13;2.90;;;;;;;;;;5032527;28;20099;-57
2022/10/18 00:54:55;;;;;;;2.40;2.03;;;;;;;;;;5034627;28;20102;-57
2022/10/18 00:57:21;;;;;;;3.00;2.80;;;;;;;;;;5034595;28;20116;-57
2022/10/18 00:59:47;;;;;;;3.00;2.80;;;;;;;;;;5031776;28;20049;-57
2022/10/18 01:02:17;;;;;;;2.85;2.65;;;;;;;;;;5034595;28;20128;-57
2022/10/18 01:04:43;;;;;;;2.72;2.53;;;;;;;;;;5035257;28;20118;-57
2022/10/18 01:07:14;;;;;;;3.35;3.05;;;;;;;;;;5037473;28;20591;-57
2022/10/18 01:09:58;;;;;;;3.35;3.15;;;;;;;;;;5040496;28;20049;-56
2022/10/18 01:12:47;;;;;;;4.00;3.70;;;;;;;;;;5034782;28;20049;-57
2022/10/18 01:15:17;;;;;;;3.28;3.08;;;;;;;;;;5031907;28;20041;-57
2022/10/18 01:17:52;;;;;;;5.15;4.75;;;;;;;;;;5032777;28;20060;-56
2022/10/18 01:20:30;;;;;;;4.00;3.70;;;;;;;;;;5036657;28;20041;-57
2022/10/18 01:23:04;;;;;;;3.67;3.40;;;;;;;;;;5034154;28;20041;-57
2022/10/18 01:25:30;;;;;;;;;;;;;;;;;;5036607;28;20053;-57
2022/10/18 01:28:01;;;;;;;4.38;4.07;;;;;;;;;;5036411;28;20068;-57
2022/10/18 01:30:27;;;;;;;;;;;;;;;;;;5034025;28;20037;-57
2022/10/18 01:32:54;;;;;;;2.50;2.30;;;;;;;;;;5037332;28;20384;-57
2022/10/18 01:35:28;;;;;;;2.25;2.05;;;;;;;;;;5036320;28;20465;-57
2022/10/18 01:37:54;;;;;;;;;;;;;;;;;;5036783;28;19925;-57
2022/10/18 01:40:20;;;;;;;;;;;;;;;;;;5034481;28;19920;-57
2022/10/18 01:42:48;;;;;;;2.28;2.17;;;;;;;;;;5030389;28;19929;-57
2022/10/18 01:45:14;;;;;;;2.17;2.08;;;;;;;;;;5034852;28;20817;-56
2022/10/18 01:47:41;;;;;;;1.40;1.33;;;;;;;;;;5034090;28;20500;-57
2022/10/18 01:50:07;;;;;;;1.88;1.77;;;;;;;;;;5033326;28;20040;-57
2022/10/18 01:52:34;;;;;;;2.15;2.05;;;;;;;;;;5034915;28;20045;-57
2022/10/18 01:55:00;;;;;;;2.17;2.08;;;;;;;;;;5033692;28;20497;-57
2022/10/18 01:57:26;;;;;;;;;;;;;;;;;;5034935;28;20041;-57
2022/10/18 01:59:52;;;;;;;;;;;;;;;;;;5033187;28;19925;-57
2022/10/18 02:02:18;;;;;;;;;;;;;;;;;;5036297;28;19924;-57
2022/10/18 02:04:44;;;;;;;;;;;;;;;;;;5035420;28;19982;-57
2022/10/18 02:07:10;;;;;;;;;;;;;;;;;;5030448;28;20288;-57
2022/10/18 02:09:38;;;;;;;;;;;;;;;;;;5033042;28;19921;-56
2022/10/18 02:12:03;;;;;;;;;;;;;;;;;;5032305;28;19928;-57
2022/10/18 02:14:29;;;;;;;;;;;;;;;;;;5031910;28;19936;-57
2022/10/18 02:16:55;;;;;;;;;;;;;;;;;;5035375;28;19925;-57
2022/10/18 02:19:21;;;;;;;;;;;;;;;;;;5031996;28;19928;-57
2022/10/18 02:21:47;;;;;;;;;;;;;;;;;;5034073;28;20367;-57
2022/10/18 02:24:13;;;;;;;;;;;;;;;;;;5038261;28;19927;-57
2022/10/18 02:26:39;;;;;;;;;;;;;;;;;;5033951;28;20020;-56
2022/10/18 02:29:05;;;;;;;3.20;2.90;;;;;;;;;;5031782;28;19944;-57
2022/10/18 02:31:35;;;;;;;2.50;2.40;;;;;;;;;;5037442;28;20178;-57
2022/10/18 02:34:08;;;;;;;2.00;1.90;;;;;;;;;;5038137;28;20067;-56
2022/10/18 02:36:37;;;;;;;2.00;1.90;;;;;;;;;;5032540;28;20056;-57
2022/10/18 02:39:05;;;;;;;4.20;3.90;;;;;;;;;;5033549;28;20049;-57
2022/10/18 02:41:32;;;;;;;3.83;3.28;;;;;;;;;;5034272;28;20979;-57
2022/10/18 02:43:58;;;;;;;3.03;2.83;;;;;;;;;;5038212;28;20098;-57
2022/10/18 02:46:24;;;;;;;2.55;2.35;;;;;;;;;;5036748;28;20045;-56
2022/10/18 02:48:50;;;;;;;3.15;2.95;;;;;;;;;;5036306;28;20049;-57
2022/10/18 02:51:16;;;;;;;3.30;3.10;;;;;;;;;;5034464;28;20787;-56
2022/10/18 02:53:42;;;;;;;2.58;2.38;;;;;;;;;;5034208;28;20038;-57
2022/10/18 02:56:08;;;;;;;2.35;2.25;;;;;;;;;;5040467;28;20110;-57
2022/10/18 02:58:34;;;;;;;2.35;2.22;;;;;;;;;;5038574;28;20045;-57
2022/10/18 03:01:00;;;;;;;1.80;1.70;;;;;;;;;;5039397;28;20048;-57
2022/10/18 03:03:26;;;;;;;1.67;1.58;;;;;;;;;;5040991;28;20050;-57
2022/10/18 03:05:52;;;;;;;1.80;1.70;;;;;;;;;;5038786;28;20049;-57
2022/10/18 03:08:18;;;;;;;2.20;2.10;;;;;;;;;;5041130;28;20107;-57
2022/10/18 03:10:45;;;;;;;1.90;1.80;;;;;;;;;;5037814;28;20041;-57
2022/10/18 03:13:11;;;;;;;2.20;2.10;;;;;;;;;;5040477;28;20102;-57
2022/10/18 03:15:37;;;;;;;1.85;1.75;;;;;;;;;;5041072;28;20040;-57
2022/10/18 03:18:03;;;;;;;1.55;1.45;;;;;;;;;;5035613;28;20044;-57
2022/10/18 03:20:29;;;;;;;2.10;2.00;;;;;;;;;;5035580;28;20097;-57
2022/10/18 03:22:55;;;;;;;2.60;2.40;;;;;;;;;;5037843;28;20041;-57
2022/10/18 03:25:21;;;;;;;1.70;1.60;;;;;;;;;;5038511;28;20049;-57
2022/10/18 03:27:47;;;;;;;3.30;3.00;;;;;;;;;;5037676;28;20040;-57
2022/10/18 03:30:13;;;;;;;2.58;2.38;;;;;;;;;;5037225;28;20044;-57
2022/10/18 03:32:42;;;;;;;2.42;2.22;;;;;;;;;;5040279;28;20041;-57
2022/10/18 03:35:08;;;;;;;7.55;3.22;;;;;;;;;;5038680;28;20063;-56
2022/10/18 03:37:35;;;;;;;2.67;2.53;;;;;;;;;;5036455;28;20121;-57
2022/10/18 03:40:01;;;;;;;2.22;2.13;;;;;;;;;;5036307;28;20084;-57
2022/10/18 03:42:27;;;;;;;1.92;1.83;;;;;;;;;;5039108;28;20517;-57
2022/10/18 03:44:53;;;;;;;1.63;1.52;;;;;;;;;;5034261;28;20079;-57
2022/10/18 03:47:19;;;;;;;1.95;1.85;;;;;;;;;;5038501;28;20045;-57
2022/10/18 03:49:45;;;;;;;1.73;1.63;;;;;;;;;;5035652;28;20642;-57
2022/10/18 03:52:11;;;;;;;2.28;2.08;;;;;;;;;;5037918;28;20040;-57
2022/10/18 03:54:37;;;;;;;3.10;2.83;;;;;;;;;;5037153;28;20042;-57
2022/10/18 03:57:03;;;;;;;3.00;2.80;;;;;;;;;;5036502;28;20045;-57
2022/10/18 03:59:29;;;;;;;2.38;2.28;;;;;;;;;;5042216;28;20041;-57
2022/10/18 04:01:55;;;;;;;2.60;2.50;;;;;;;;;;5037099;28;20037;-57
2022/10/18 04:04:21;;;;;;;2.22;2.13;;;;;;;;;;5035827;28;20056;-57
2022/10/18 04:06:47;;;;;;;;;;;;;;;;;;5037112;28;20053;-57
2022/10/18 04:09:13;;;;;;;2.35;2.25;;;;;;;;;;5029859;28;20008;-57
2022/10/18 04:11:39;;;;;;;2.40;2.20;;;;;;;;;;5033117;28;20119;-57
2022/10/18 04:14:05;;;;;;;2.65;2.47;;;;;;;;;;5037705;28;20295;-57
2022/10/18 04:16:31;;;;;;;;;;;;;;;;;;5037514;28;20045;-57
2022/10/18 04:18:56;;;;;;;;;;;;;;;;;;5039405;28;19936;-57
2022/10/18 04:21:22;;;;;;;;;;;;;;;;;;5040885;28;19972;-57
2022/10/18 04:23:49;;;;;;;2.42;2.22;;;;;;;;;;5037523;28;20298;-57
2022/10/18 04:26:15;;;;;;;1.90;1.80;;;;;;;;;;5038441;28;20111;-56
2022/10/18 04:28:42;;;;;;;2.35;2.25;;;;;;;;;;5038090;28;20102;-57
2022/10/18 04:31:08;;;;;;;2.90;2.65;;;;;;;;;;5034277;28;20512;-56
2022/10/18 04:33:34;;;;;;;3.65;3.00;;;;;;;;;;5033964;28;20048;-57
2022/10/18 04:36:01;;;;;;;2.92;2.72;;;;;;;;;;5034550;28;20515;-57
2022/10/18 04:38:27;;;;;;;1.67;1.58;;;;;;;;;;5040058;28;20044;-57
2022/10/18 04:40:53;;;;;;;1.40;1.30;;;;;;;;;;5035701;28;20041;-56
2022/10/18 04:43:19;;;;;;;1.40;1.30;;;;;;;;;;5036828;28;20069;-57
2022/10/18 04:45:45;;;;;;;1.20;1.20;;;;;;;;;;5038500;28;20411;-56
2022/10/18 04:48:11;;;;;;;1.10;1.10;;;;;;;;;;5032978;28;20038;-57
2022/10/18 04:50:37;;;;;;;1.85;1.75;;;;;;;;;;5035479;28;20107;-57
2022/10/18 04:53:03;;;;;;;1.38;1.30;;;;;;;;;;5037068;28;20484;-56
2022/10/18 04:55:29;;;;;;;;;;;;;;;;;;5037947;28;20045;-57
2022/10/18 04:57:55;;;;;;;;;;;;;;;;;;5039848;28;19979;-57
2022/10/18 05:00:21;;;;;;;;;;;;;;;;;;5037987;28;20284;-57
2022/10/18 05:02:47;;;;;;;;;;;;;;;;;;5038126;28;19921;-57
2022/10/18 05:05:13;;;;;;;;;;;;;;;;;;5038682;28;19924;-57
2022/10/18 05:07:39;;;;;;;;;;;;;;;;;;5037407;28;19920;-57
2022/10/18 05:10:05;;;;;;;;;;;;;;;;;;5034061;28;19928;-57
2022/10/18 05:12:31;;;;;;;;;;;;;;;;;;5036317;28;19977;-57
2022/10/18 05:14:57;;;;;;;2.28;2.08;;;;;;;;;;5034951;28;20346;-57
2022/10/18 05:17:23;;;;;;;1.60;1.50;;;;;;;;;;5034515;28;20033;-57
2022/10/18 05:19:49;;;;;;;1.50;1.40;;;;;;;;;;5033822;28;20473;-57
2022/10/18 05:22:14;;;;;;;1.65;1.55;;;;;;;;;;5038230;28;20045;-57
2022/10/18 05:24:40;;;;;;;1.40;1.30;;;;;;;;;;5036764;28;20484;-57
2022/10/18 05:27:07;;;;;;;1.95;1.85;;;;;;;;;;5036523;28;20046;-57
2022/10/18 05:29:33;;;;;;;1.70;1.60;;;;;;;;;;5039945;28;20131;-57
2022/10/18 05:31:59;;;;;;;1.60;1.50;;;;;;;;;;5036574;28;20052;-57
2022/10/18 05:34:26;;;;;;;1.30;1.30;;;;;;;;;;5038693;28;20047;-57
2022/10/18 05:36:52;;;;;;;1.80;1.70;;;;;;;;;;5033941;28;20256;-57
2022/10/18 05:39:18;;;;;;;1.60;1.50;;;;;;;;;;5033026;28;20597;-57
2022/10/18 05:41:44;;;;;;;1.92;1.83;;;;;;;;;;5037163;28;20041;-56
2022/10/18 05:44:10;;;;;;;1.80;1.70;;;;;;;;;;5035032;28;20528;-57
2022/10/18 05:46:36;;;;;;;1.30;1.20;;;;;;;;;;5037099;28;20045;-57
2022/10/18 05:49:02;;;;;;;1.95;1.85;;;;;;;;;;5038467;28;20571;-57
2022/10/18 05:51:28;;;;;;;2.22;2.03;;;;;;;;;;5032728;28;20044;-57
2022/10/18 05:53:54;;;;;;;2.80;2.58;;;;;;;;;;5038780;28;20110;-57
2022/10/18 05:56:20;;;;;;;1.80;1.70;;;;;;;;;;5034046;28;19999;-57
2022/10/18 05:58:49;;;;;;;1.50;1.40;;;;;;;;;;5036029;28;20040;-57
2022/10/18 06:01:15;;;;;;;1.60;1.50;;;;;;;;;;5035910;28;20049;-57
2022/10/18 06:03:41;;;;;;;0.90;0.90;;;;;;;;;;5032826;28;20091;-57
2022/10/18 06:06:09;;;;;;;1.10;1.10;;;;;;;;;;5035895;28;20392;-57
2022/10/18 06:08:35;;;;;;;1.10;1.00;;;;;;;;;;5039340;28;20040;-57
2022/10/18 06:11:16;;;;;;;1.20;1.20;;;;;;;;;;5038187;28;20077;-57
2022/10/18 06:13:43;;;;;;;1.75;1.65;;;;;;;;;;5036574;28;20041;-57
2022/10/18 06:16:08;;;;;;;;;;;;;;;;;;5032058;28;19972;-57
2022/10/18 06:18:34;;;;;;;1.50;1.40;;;;;;;;;;5033959;28;19979;-57
2022/10/18 06:21:00;;;;;;;1.42;1.33;;;;;;;;;;5034021;28;20049;-56
2022/10/18 06:23:27;;;;;;;0.98;0.98;;;;;;;;;;5034509;28;20369;-57
2022/10/18 06:25:53;;;;;;;1.08;1.08;;;;;;;;;;5035840;28;20042;-57
2022/10/18 06:28:19;;;;;;;1.20;1.20;;;;;;;;;;5035836;28;20044;-57
2022/10/18 06:30:45;;;;;;;1.10;1.10;;;;;;;;;;5036964;28;20045;-56
2022/10/18 06:33:11;;;;;;;1.42;1.33;;;;;;;;;;5045705;28;20111;-57
2022/10/18 06:35:37;;;;;;;1.00;1.00;;;;;;;;;;5038542;28;20052;-56
2022/10/18 06:38:05;;;;;;;1.27;1.17;;;;;;;;;;5038616;28;20040;-57
2022/10/18 06:40:36;;;;;;;1.02;1.02;;;;;;;;;;5038929;28;20551;-57
2022/10/18 06:43:05;;;;;;;0.98;0.98;;;;;;;;;;5040380;28;20583;-56
2022/10/18 06:45:31;;;;;;;1.25;1.25;;;;;;;;;;5041425;28;20055;-57
2022/10/18 06:47:57;;;;;;;1.20;1.20;;;;;;;;;;5039102;28;20492;-57
2022/10/18 06:50:23;;;;;;;1.35;1.25;;;;;;;;;;5037416;28;20049;-57
2022/10/18 06:52:51;;;;;;;1.10;1.10;;;;;;;;;;5039868;28;20033;-57
2022/10/18 06:55:17;;;;;;;1.10;1.10;;;;;;;;;;5037418;28;20665;-56
2022/10/18 06:57:43;;;;;;;1.17;1.10;;;;;;;;;;5039371;28;20051;-57
2022/10/18 07:00:10;;;;;;;0.82;0.82;;;;;;;;;;5036668;28;20391;-57
2022/10/18 07:02:36;;;;;;;0.90;0.90;;;;;;;;;;5037874;28;20041;-58
2022/10/18 07:05:02;;;;;;;0.90;0.90;;;;;;;;;;5044376;28;20047;-55
2022/10/18 07:07:30;;;;;;;1.00;0.90;;;;;;;;;;5037580;28;20488;-54
2022/10/18 07:09:56;;;;;;;0.68;0.68;;;;;;;;;;5038617;28;20092;-56
2022/10/18 07:12:22;;;;;;;1.25;1.15;;;;;;;;;;5048436;28;20504;-65
2022/10/18 07:14:48;;;;;;;1.25;1.15;;;;;;;;;;5048938;28;20041;-56
2022/10/18 07:17:14;;;;;;;0.80;0.80;;;;;;;;;;5048057;28;20052;-56
2022/10/18 07:19:40;;;;;;;0.77;0.77;;;;;;;;;;5045565;28;20095;-55
2022/10/18 07:22:06;;;;;;;0.60;0.60;;;;;;;;;;5035146;28;20102;-56
2022/10/18 07:24:32;;;;;;;0.63;0.63;;;;;;;;;;5048235;28;20045;-57
2022/10/18 07:26:58;;;;;;;0.85;0.85;;;;;;;;;;5044839;28;20045;-57
2022/10/18 07:29:24;;;;;;;0.65;0.65;;;;;;;;;;5044138;28;20052;-57
2022/10/18 07:31:50;;;;;;;0.55;0.55;;;;;;;;;;5042092;28;20048;-56
2022/10/18 07:34:16;;;;;;;0.90;0.90;;;;;;;;;;5034220;28;20404;-56
2022/10/18 07:36:42;;;;;;;0.65;0.65;;;;;;;;;;5042611;28;20052;-56
2022/10/18 07:39:08;;;;;;;0.57;0.57;;;;;;;;;;5041374;28;20515;-56
2022/10/18 07:41:34;;;;;;;0.60;0.60;;;;;;;;;;5040273;28;20041;-55
2022/10/18 07:44:01;;;;;;;0.75;0.75;;;;;;;;;;5034114;28;20091;-56
2022/10/18 07:46:27;;;;;;;0.50;0.50;;;;;;;;;;5041474;28;20112;-57
2022/10/18 07:48:54;;;;;;;0.90;0.90;;;;;;;;;;5044820;28;20515;-57
2022/10/18 07:51:20;;;;;;;0.90;0.90;;;;;;;;;;5043356;28;20109;-57
2022/10/18 07:53:46;;;;;;;0.80;0.80;;;;;;;;;;5041488;28;20037;-57
2022/10/18 07:56:16;;;;;;;0.80;0.80;;;;;;;;;;5038046;28;20045;-57
2022/10/18 07:58:47;;;;;;;1.00;1.00;;;;;;;;;;5044437;28;20045;-58
2022/10/18 08:01:14;;;;;;;1.30;1.20;;;;;;;;;;5044289;28;20041;-57
2022/10/18 08:03:40;;;;;;;1.30;1.20;;;;;;;;;;5039590;28;20052;-57
2022/10/18 08:06:08;;;;;;;1.17;1.08;;;;;;;;;;5039382;28;20056;-58
2022/10/18 08:08:35;;;;;;;1.13;1.02;;;;;;;;;;5039183;28;20048;-56
2022/10/18 08:11:08;;;;;;;1.10;1.00;;;;;;;;;;5041353;28;20056;-58
2022/10/18 08:13:34;;;;;;;0.80;0.80;;;;;;;;;;5046333;28;20041;-57
2022/10/18 08:16:01;;;;;;;0.77;0.70;;;;;;;;;;5048045;28;20071;-57
2022/10/18 08:18:27;;;;;;;0.80;0.80;;;;;;;;;;5045845;28;20056;-57
2022/10/18 08:20:53;;;;;;;1.83;1.20;;;;;;;;;;5043087;28;20044;-57
2022/10/18 08:23:19;;;;;;;1.17;1.08;;;;;;;;;;5046222;28;20098;-58
2022/10/18 08:25:45;;;;;;;1.80;1.25;;;;;;;;;;5046490;28;20607;-57
2022/10/18 08:28:12;;;;;;;1.02;0.93;;;;;;;;;;5045965;28;20107;-57
2022/10/18 08:30:39;;;;;;;1.98;1.10;;;;;;;;;;5047308;28;20080;-58
2022/10/18 08:33:05;;;;;;;1.98;1.02;;;;;;;;;;5046646;28;20130;-57
2022/10/18 08:35:31;;;;;;;0.93;0.60;;;;;;;;;;5047885;28;20053;-57
2022/10/18 08:37:58;;;;;;;1.20;1.10;;;;;;;;;;5047677;28;20045;-57
2022/10/18 08:40:26;;;;;;;3.10;1.55;;;;;;;;;;5046937;28;20146;-57
2022/10/18 08:42:56;;;;;;;1.55;1.42;;;;;;;;;;5047553;28;20045;-57
2022/10/18 08:45:23;;;;;;;1.63;0.82;;;;;;;;;;5047096;28;20480;-57
2022/10/18 08:47:50;;;;;;;2.13;0.73;;;;;;;;;;5046593;28;20532;-58
2022/10/18 08:50:21;;;;;;;0.88;0.70;;;;;;;;;;5046805;28;20535;-58
2022/10/18 08:52:47;;;;;;;0.88;0.63;;;;;;;;;;5047211;28;20047;-57
2022/10/18 08:55:19;;;;;;;1.02;0.70;;;;;;;;;;5046383;28;20127;-57
2022/10/18 08:57:45;;;;;;;;;;;;;;;;;;5047791;28;20548;-58
2022/10/18 09:00:18;;;;;;;2.95;1.40;;;;;;;;;;5047420;28;20028;-57
2022/10/18 09:02:50;;;;;;;3.65;2.10;;;;;;;;;;5046675;28;20049;-57
2022/10/18 09:05:22;;;;;;;2.30;1.70;;;;;;;;;;5046757;28;20503;-58
2022/10/18 09:07:50;;;;;;;;;;;;;;;;;;5047626;28;20071;-57
2022/10/18 09:10:52;;;;;;;3.28;1.60;;;;;;;;;;5046112;28;19925;-58
2022/10/18 09:13:36;;;;;;;2.17;1.30;;;;;;;;;;5007409;28;20590;-57
2022/10/18 09:16:04;;;;;;;3.33;1.15;;;;;;;;;;5044952;28;20531;-57
2022/10/18 09:18:48;;;;;;;3.97;1.05;;;;;;;;;;5047358;28;20538;-58
2022/10/18 09:21:24;;;;;;;1.10;0.95;;;;;;;;;;5046475;28;20056;-57
2022/10/18 09:23:57;;;;;;;1.10;0.80;;;;;;;;;;5046357;28;20041;-57
2022/10/18 09:26:24;;;;;;;1.73;0.90;;;;;;;;;;5046667;28;20407;-58
2022/10/18 09:29:08;;;;;;;1.83;0.73;;;;;;;;;;5046758;28;20052;-58
2022/10/18 09:31:37;;;;;;;2.47;1.30;;;;;;;;;;5046429;28;20056;-57
2022/10/18 09:34:07;;;;;;;3.45;1.25;;;;;;;;;;5047355;28;20049;-57
2022/10/18 09:36:36;;;;;;;1.38;0.95;;;;;;;;;;5046517;28;20048;-57
2022/10/18 09:39:04;;;;;;;2.42;0.70;;;;;;;;;;5047140;28;20057;-58
2022/10/18 09:41:35;;;;;;;3.72;1.02;;;;;;;;;;5046803;28;20083;-58
2022/10/18 09:44:05;;;;;;;5.47;1.27;;;;;;;;;;5046191;28;20091;-58
2022/10/18 09:46:33;;;;;;;3.38;1.00;;;;;;;;;;5045630;28;20052;-58
2022/10/18 09:49:18;;;;;;;3.45;0.90;;;;;;;;;;5044030;28;20508;-58
2022/10/18 09:51:44;;;;;;;2.60;0.90;;;;;;;;;;5044726;28;20041;-58
2022/10/18 09:54:10;;;;;;;3.10;0.85;;;;;;;;;;5044797;28;20463;-57
2022/10/18 09:57:01;;;;;;;5.57;1.55;;;;;;;;;;5045449;28;20124;-58
2022/10/18 09:59:32;;;;;;;5.53;1.17;;;;;;;;;;5042729;28;20048;-58
2022/10/18 10:01:58;;;;;;;4.63;1.25;;;;;;;;;;5045283;28;20053;-57
2022/10/18 10:04:24;;;;;;;2.08;1.10;;;;;;;;;;5040806;28;21045;-57
2022/10/18 10:06:50;;;;;;;2.47;0.75;;;;;;;;;;5048187;28;20045;-58
2022/10/18 10:09:17;;;;;;;4.57;1.10;;;;;;;;;;5049004;28;20403;-58
2022/10/18 10:11:48;;;;;;;1.40;0.65;;;;;;;;;;5046883;28;20071;-58
2022/10/18 10:14:22;;;;;;;3.65;0.90;;;;;;;;;;5048679;28;20091;-58
2022/10/18 10:16:47;;;;;;;2.78;1.00;;;;;;;;;;5043540;28;20707;-59
2022/10/18 10:19:34;;;;;;;3.13;1.00;;;;;;;;;;5043573;28;20123;-58
2022/10/18 10:22:11;;;;;;;5.78;1.42;;;;;;;;;;5047951;28;20048;-58
2022/10/18 10:24:50;;;;;;;5.13;1.40;;;;;;;;;;5046651;28;20033;-58
2022/10/18 10:27:19;;;;;;;4.70;1.25;;;;;;;;;;5046252;28;20041;-58
2022/10/18 10:29:45;;;;;;;5.18;1.40;;;;;;;;;;5045125;28;20049;-58
2022/10/18 10:32:15;;;;;;;6.80;1.45;;;;;;;;;;5049727;28;20048;-58
2022/10/18 10:34:41;;;;;;;4.50;1.00;;;;;;;;;;5047961;28;20041;-57
2022/10/18 10:37:23;;;;;;;4.55;1.17;;;;;;;;;;5047564;28;20044;-58
2022/10/18 10:40:09;;;;;;;5.47;1.23;;;;;;;;;;5047843;28;20110;-57
2022/10/18 10:42:37;;;;;;;4.43;1.00;;;;;;;;;;5047663;28;20040;-58
2022/10/18 10:45:03;;;;;;;4.25;1.13;;;;;;;;;;5048407;28;20045;-58
2022/10/18 10:47:32;;;;;;;3.88;1.10;;;;;;;;;;5047331;28;20791;-58
2022/10/18 10:49:58;;;;;;;2.78;1.00;;;;;;;;;;5046397;28;20045;-58
2022/10/18 10:52:28;;;;;;;5.78;1.30;;;;;;;;;;5047693;28;20529;-58
2022/10/18 10:54:56;;;;;;;2.92;1.10;;;;;;;;;;5048952;28;20120;-57
2022/10/18 10:57:28;;;;;;;4.55;1.10;;;;;;;;;;5049148;28;20576;-57
2022/10/18 10:59:55;;;;;;;2.85;0.77;;;;;;;;;;5049450;28;20048;-57
2022/10/18 11:02:31;;;;;;;3.50;1.33;;;;;;;;;;5047147;28;20040;-57
2022/10/18 11:05:15;;;;;;;3.30;1.08;;;;;;;;;;5046331;28;20065;-57
2022/10/18 11:07:43;;;;;;;1.45;0.60;;;;;;;;;;5046949;28;20033;-58
2022/10/18 11:10:09;;;;;;;0.88;0.52;;;;;;;;;;5048209;28;20049;-57
2022/10/18 11:12:46;;;;;;;3.05;0.95;;;;;;;;;;5046992;28;20570;-57
2022/10/18 11:15:12;;;;;;;4.35;1.05;;;;;;;;;;5027516;28;20123;-58
2022/10/18 11:18:02;;;;;;;4.43;0.95;;;;;;;;;;5043993;28;20464;-58
2022/10/18 11:20:28;;;;;;;5.47;1.20;;;;;;;;;;5047101;28;20056;-58
2022/10/18 11:22:57;;;;;;;4.45;1.45;;;;;;;;;;5048438;28;20044;-58
2022/10/18 11:25:25;;;;;;;6.60;1.20;;;;;;;;;;5048535;28;20045;-58
2022/10/18 11:27:59;;;;;;;7.78;1.58;;;;;;;;;;5031400;28;20050;-58
2022/10/18 11:30:43;;;;;;;5.18;1.23;;;;;;;;;;5040019;28;20053;-58
2022/10/18 11:33:22;;;;;;;3.55;0.93;;;;;;;;;;5048563;28;20537;-58
2022/10/18 11:35:54;;;;;;;3.10;1.08;;;;;;;;;;5047551;28;20443;-58
2022/10/18 11:38:30;;;;;;;4.93;1.15;;;;;;;;;;5048223;28;20037;-58
2022/10/18 11:40:56;;;;;;;13.65;2.17;;;;;;;;;;5048873;28;20076;-58
2022/10/18 11:43:25;;;;;;;4.32;1.40;;;;;;;;;;5045651;28;20072;-58
2022/10/18 11:45:56;;;;;;;1.50;1.02;;;;;;;;;;5041759;28;20075;-58
2022/10/18 11:48:44;;;;;;;4.30;1.00;;;;;;;;;;5040213;28;20073;-58
2022/10/18 11:51:14;;;;;;;3.20;0.88;;;;;;;;;;5039275;28;20053;-58
2022/10/18 11:54:13;;;;;;;4.28;1.13;;;;;;;;;;5028209;28;20051;-58
2022/10/18 11:56:44;;;;;;;4.55;1.15;;;;;;;;;;5016031;28;20054;-58
2022/10/18 11:59:23;;;;;;;3.80;1.13;;;;;;;;;;5027612;28;20128;-58
2022/10/18 12:01:49;;;;;;;3.08;1.02;;;;;;;;;;5028706;28;20049;-58
2022/10/18 12:04:18;;;;;;;2.80;1.30;;;;;;;;;;5027227;28;20111;-58
2022/10/18 12:06:46;;;;;;;5.32;0.93;;;;;;;;;;5028645;28;20465;-58
2022/10/18 12:09:34;;;;;;;0.70;0.40;;;;;;;;;;5038870;28;20414;-58
2022/10/18 12:12:35;;;;;;;5.60;1.33;;;;;;;;;;5028482;28;20046;-58
2022/10/18 12:15:24;;;;;;;6.47;1.23;;;;;;;;;;5006165;28;20050;-58
2022/10/18 12:17:52;;;;;;;6.60;1.55;;;;;;;;;;5027095;28;20061;-58
2022/10/18 12:20:32;;;;;;;6.22;1.92;;;;;;;;;;5047134;28;20076;-58
2022/10/18 12:22:58;;;;;;;3.33;1.30;;;;;;;;;;5048106;28;20052;-58
2022/10/18 12:25:24;;;;;;;6.53;1.70;;;;;;;;;;5043695;28;20085;-58
2022/10/18 12:28:09;;;;;;;2.97;1.15;;;;;;;;;;5030316;28;20041;-58
2022/10/18 12:30:35;;;;;;;6.18;1.10;;;;;;;;;;5027634;28;20041;-58
2022/10/18 12:33:08;;;;;;;6.95;1.48;;;;;;;;;;5037459;28;20041;-58
2022/10/18 12:35:39;;;;;;;5.85;1.20;;;;;;;;;;5048018;28;20080;-58
2022/10/18 12:38:11;;;;;;;2.97;1.00;;;;;;;;;;5047721;28;20647;-57
2022/10/18 12:40:43;;;;;;;2.88;0.90;;;;;;;;;;5047093;28;20048;-58
2022/10/18 12:43:16;;;;;;;1.85;0.70;;;;;;;;;;5047255;28;20387;-58
2022/10/18 12:46:01;;;;;;;4.47;1.00;;;;;;;;;;5047736;28;20650;-58
2022/10/18 12:48:56;;;;;;;3.50;0.63;;;;;;;;;;5046528;28;20557;-58
2022/10/18 12:51:22;;;;;;;2.33;0.90;;;;;;;;;;5042258;28;20057;-58
2022/10/18 12:53:52;;;;;;;3.00;0.90;;;;;;;;;;5046915;28;20041;-58
2022/10/18 12:56:27;;;;;;;7.35;1.60;;;;;;;;;;5047256;28;20143;-58
2022/10/18 12:59:14;;;;;;;1.52;0.77;;;;;;;;;;5047258;28;20040;-58
2022/10/18 13:01:52;;;;;;;3.00;1.00;;;;;;;;;;5042274;28;20060;-58
2022/10/18 13:04:27;;;;;;;2.33;0.80;;;;;;;;;;5047128;28;20056;-58
2022/10/18 13:06:57;;;;;;;2.97;0.90;;;;;;;;;;5028389;28;20057;-58
2022/10/18 13:09:24;;;;;;;5.45;1.25;;;;;;;;;;5026352;28;20053;-58
2022/10/18 13:11:51;;;;;;;1.50;0.63;;;;;;;;;;5038465;28;20045;-58
2022/10/18 13:14:36;;;;;;;4.07;0.93;;;;;;;;;;5046368;28;20041;-58
2022/10/18 13:17:06;;;;;;;3.42;0.88;;;;;;;;;;5029161;28;20077;-58
2022/10/18 13:19:32;;;;;;;3.33;1.15;;;;;;;;;;5044862;28;20052;-58
2022/10/18 13:22:17;;;;;;;2.22;0.98;;;;;;;;;;5046389;28;20041;-58
2022/10/18 13:25:00;;;;;;;2.75;0.93;;;;;;;;;;5047108;28;20094;-58
2022/10/18 13:27:45;;;;;;;4.53;1.30;;;;;;;;;;5046746;28;20511;-58
2022/10/18 13:30:31;;;;;;;1.83;0.65;;;;;;;;;;5045998;28;20403;-58
2022/10/18 13:33:09;;;;;;;3.25;1.02;;;;;;;;;;5025139;28;20601;-58
2022/10/18 13:35:38;;;;;;;3.95;1.02;;;;;;;;;;5037770;28;20037;-58
2022/10/18 13:38:05;;;;;;;3.40;0.80;;;;;;;;;;5037287;28;20047;-58
2022/10/18 13:40:31;;;;;;;2.75;0.90;;;;;;;;;;5042825;28;20123;-58
2022/10/18 13:43:17;;;;;;;2.67;0.70;;;;;;;;;;5041926;28;20056;-58
2022/10/18 13:45:44;;;;;;;4.25;0.90;;;;;;;;;;5044210;28;20044;-59
2022/10/18 13:48:29;;;;;;;6.32;1.23;;;;;;;;;;5043911;28;20037;-58
2022/10/18 13:51:01;;;;;;;3.60;0.90;;;;;;;;;;5038539;28;20048;-59
2022/10/18 13:53:47;;;;;;;2.72;1.08;;;;;;;;;;5038520;28;20511;-58
2022/10/18 13:56:24;;;;;;;6.82;1.25;;;;;;;;;;5036100;28;20033;-57
2022/10/18 13:58:59;;;;;;;3.78;0.98;;;;;;;;;;5038126;28;20421;-58
2022/10/18 14:01:44;;;;;;;4.47;1.33;;;;;;;;;;5043195;28;20045;-58
2022/10/18 14:04:21;;;;;;;8.82;1.70;;;;;;;;;;5044369;28;20057;-58
2022/10/18 14:06:47;;;;;;;4.65;1.77;;;;;;;;;;5040129;28;20047;-58
2022/10/18 14:09:28;;;;;;;3.58;1.30;;;;;;;;;;5036891;28;20087;-59
2022/10/18 14:12:02;;;;;;;4.38;1.27;;;;;;;;;;5040604;28;20037;-58
2022/10/18 14:14:43;;;;;;;3.33;0.93;;;;;;;;;;5040084;28;20136;-58
2022/10/18 14:17:28;;;;;;;4.60;1.05;;;;;;;;;;5037698;28;20037;-58
2022/10/18 14:20:01;;;;;;;1.60;0.60;;;;;;;;;;5043075;28;20404;-58
2022/10/18 14:22:30;;;;;;;1.55;0.40;;;;;;;;;;5044479;28;20503;-58
2022/10/18 14:24:57;;;;;;;1.25;0.55;;;;;;;;;;5035063;28;20041;-58
2022/10/18 14:27:25;;;;;;;3.70;0.77;;;;;;;;;;5035762;28;20049;-59
2022/10/18 14:30:07;;;;;;;2.47;0.80;;;;;;;;;;5036201;28;20041;-58
2022/10/18 14:32:33;;;;;;;2.22;0.77;;;;;;;;;;5043535;28;20033;-58
2022/10/18 14:34:59;;;;;;;4.07;0.85;;;;;;;;;;5040063;28;20587;-58
2022/10/18 14:37:27;;;;;;;1.30;0.60;;;;;;;;;;5039215;28;20638;-58
2022/10/18 14:39:53;;;;;;;4.07;1.02;;;;;;;;;;5039912;28;20045;-58
2022/10/18 14:42:21;;;;;;;3.10;0.80;;;;;;;;;;5037479;28;20037;-58
2022/10/18 14:44:51;;;;;;;2.35;0.85;;;;;;;;;;5044272;28;20073;-58
2022/10/18 14:47:24;;;;;;;3.42;0.93;;;;;;;;;;5042094;28;20127;-57
2022/10/18 14:49:53;;;;;;;2.38;0.52;;;;;;;;;;5045034;28;20412;-58
2022/10/18 14:52:20;;;;;;;1.42;0.35;;;;;;;;;;5043240;28;20654;-58
2022/10/18 14:54:46;;;;;;;0.65;0.30;;;;;;;;;;5042996;28;20467;-58
2022/10/18 14:57:27;;;;;;;3.83;0.88;;;;;;;;;;5045406;28;20047;-58
2022/10/18 14:59:57;;;;;;;1.80;0.70;;;;;;;;;;5043799;28;20041;-58
2022/10/18 15:02:25;;;;;;;1.92;0.70;;;;;;;;;;5041314;28;20498;-58
2022/10/18 15:04:55;;;;;;;1.67;0.60;;;;;;;;;;5041121;28;20140;-58
2022/10/18 15:07:21;;;;;;;1.52;0.55;;;;;;;;;;5037104;28;20648;-58